ROMMA est une association bénévole à but non lucratif. Votre soutien est indispensable : ADHERER à ROMMA ou FAIRE un DON

Challes-les-Eaux - (73, Savoie)

Trouée des Marches (325 m)   Longitude: 05° 58' E   Latitude: 45° 32' N Station romma n°148
 

Détail journalier du     <<     >>

Température Precipitation Humidité Pression Vent Dir Rafale Dir. rafale
Heure (°C) (mm) (%) (hPa) (km/h) (km/h)
01:00 17.907710195N15N
02:00 15.908210192O16NNO
03:00 14.908610181O6S
04:00 12.909110181S10SSE
05:00 12.409110181S5S
06:00 12.3093101800
07:00 11.7093101705SE
08:00 11.309310172SSE8S
09:00 11.409310182SE6SE
10:00 13.708510184SE13ESE
11:00 15.808010184ESE15ESE
12:00 18.207310172ESE8SSE
13:00 21.106110163N8N
14:00 22.705710153ONO10ONO
15:00 24.105310142ONO8SSE
16:00 24.904810132O6ONO
17:00 25.404810122SO6SO
18:00 23.405610121SO5NNO
19:00 20.906610122NNE10NNE
20:00 18.407210122SO6SSO
21:00 16.707910122SSO6SO
22:00 15.408310121OSO6SO
23:00 17.407310122ESE10ESE
minuit 16.807310113ESE13ESE

Graphique du 14-10-2019

 

Serveur OMMA